Time;durP1;ratioP1;P1;durP2;ratioP2;P2;SDS_P1;SDS_P2;PMS_P1;PMS_P2;Temp;Humidity;BMP_temperature;BMP_pressure;BME280_temperature;BME280_humidity;BME280_pressure;Samples;Min_cycle;Max_cycle;Signal;HPM_P1;HPM_P2
2023/09/16 00:00:17;;;;;;;7.10;6.40;;;16.90;99.90;;;;;;5004885;28;20184;-75
2023/09/16 00:02:43;;;;;;;8.80;6.77;;;16.80;99.90;;;;;;5013245;28;20702;-72
2023/09/16 00:05:08;;;;;;;6.93;6.23;;;16.80;99.90;;;;;;5014509;28;20201;-72
2023/09/16 00:07:34;;;;;;;7.87;6.80;;;16.70;99.90;;;;;;5014519;28;20183;-72
2023/09/16 00:10:00;;;;;;;7.20;6.47;;;16.70;99.90;;;;;;5013095;28;20706;-73
2023/09/16 00:12:26;;;;;;;6.93;6.23;;;16.60;99.90;;;;;;5013090;28;20238;-72
2023/09/16 00:14:52;;;;;;;6.73;6.23;;;16.60;99.90;;;;;;5014539;28;20630;-74
2023/09/16 00:17:18;;;;;;;6.50;5.80;;;16.60;99.90;;;;;;5013831;28;20203;-73
2023/09/16 00:19:44;;;;;;;6.47;5.87;;;16.50;99.90;;;;;;5013153;28;20662;-73
2023/09/16 00:22:10;;;;;;;9.17;7.40;;;16.40;99.90;;;;;;5013037;28;20294;-73
2023/09/16 00:24:36;;;;;;;7.93;7.10;;;16.40;99.90;;;;;;5013477;28;20232;-74
2023/09/16 00:27:03;;;;;;;7.37;6.67;;;16.30;99.90;;;;;;5016764;28;20188;-73
2023/09/16 00:29:29;;;;;;;7.30;6.57;;;16.30;99.90;;;;;;5019960;28;20180;-73
2023/09/16 00:31:55;;;;;;;8.20;7.40;;;16.20;99.90;;;;;;5014141;28;20279;-73
2023/09/16 00:34:20;;;;;;;7.23;6.53;;;16.20;99.90;;;;;;5014131;28;20575;-73
2023/09/16 00:36:47;;;;;;;8.00;6.23;;;16.20;99.90;;;;;;5014159;28;20180;-74
2023/09/16 00:39:13;;;;;;;7.93;6.43;;;16.10;99.90;;;;;;5004631;28;20550;-73
2023/09/16 00:41:39;;;;;;;6.87;6.17;;;16.10;99.90;;;;;;5013964;28;20196;-73
2023/09/16 00:44:05;;;;;;;6.67;6.03;;;16.10;99.90;;;;;;5013424;28;20176;-73
2023/09/16 00:46:30;;;;;;;7.37;6.77;;;16.20;99.90;;;;;;5013730;28;20180;-73
2023/09/16 00:48:56;;;;;;;8.27;6.80;;;16.20;99.90;;;;;;5013594;28;20187;-73
2023/09/16 00:51:22;;;;;;;7.80;6.70;;;16.20;99.90;;;;;;5013328;28;20204;-73
2023/09/16 00:53:49;;;;;;;7.47;6.77;;;16.20;99.90;;;;;;5013584;28;20653;-73
2023/09/16 00:56:14;;;;;;;8.10;7.30;;;16.20;99.90;;;;;;5013652;28;20199;-74
2023/09/16 00:58:41;;;;;;;8.07;6.77;;;16.10;99.90;;;;;;5013302;28;20180;-73
2023/09/16 01:01:09;;;;;;;8.40;7.33;;;16.00;99.90;;;;;;5013445;28;20219;-74
2023/09/16 01:03:35;;;;;;;7.90;7.20;;;16.00;99.90;;;;;;5019973;28;20203;-73
2023/09/16 01:06:06;;;;;;;8.60;7.70;;;16.00;99.90;;;;;;5013867;28;20243;-74
2023/09/16 01:08:34;;;;;;;8.43;7.53;;;16.00;99.90;;;;;;5013423;28;20234;-73
2023/09/16 01:11:04;;;;;;;10.03;7.23;;;16.00;99.90;;;;;;5013306;28;20192;-73
2023/09/16 01:13:33;;;;;;;10.70;7.30;;;16.00;99.90;;;;;;5013131;28;20188;-73
2023/09/16 01:16:26;;;;;;;8.30;7.60;;;16.00;99.90;;;;;;5013812;28;20291;-74
2023/09/16 01:18:57;;;;;;;7.87;7.17;;;16.10;99.90;;;;;;5011588;28;20632;-73
2023/09/16 01:21:23;;;;;;;8.87;7.17;;;16.20;99.90;;;;;;5011743;28;20192;-74
2023/09/16 01:24:23;;;;;;;8.30;7.43;;;16.20;99.90;;;;;;5021304;28;20190;-74
2023/09/16 01:26:49;;;;;;;10.33;7.20;;;16.30;99.90;;;;;;5009870;28;20208;-73
2023/09/16 01:29:16;;;;;;;7.37;6.33;;;16.40;99.90;;;;;;5020902;28;20266;-73
2023/09/16 01:31:43;;;;;;;7.60;6.83;;;16.40;99.90;;;;;;5013026;28;20208;-73
2023/09/16 01:34:27;;;;;;;7.47;6.77;;;16.40;99.90;;;;;;5012767;28;20659;-74
2023/09/16 01:36:57;;;;;;;8.03;6.20;;;16.30;99.90;;;;;;5013018;28;20180;-73
2023/09/16 01:39:24;;;;;;;7.43;6.83;;;16.30;99.90;;;;;;5012235;28;20188;-73
2023/09/16 01:41:52;;;;;;;7.97;7.17;;;16.30;99.90;;;;;;5012751;28;20204;-73
2023/09/16 01:44:18;;;;;;;7.37;6.67;;;16.30;99.90;;;;;;5012409;28;20210;-73
2023/09/16 01:46:43;;;;;;;8.47;7.67;;;16.20;99.90;;;;;;5012880;28;20216;-72
2023/09/16 01:49:09;;;;;;;8.97;7.17;;;16.20;99.90;;;;;;5012025;28;20286;-73
2023/09/16 01:51:35;;;;;;;8.17;7.43;;;16.10;99.90;;;;;;5012471;28;20328;-73
2023/09/16 01:54:00;;;;;;;8.27;7.43;;;16.10;99.90;;;;;;5012498;28;20217;-73
2023/09/16 01:56:26;;;;;;;9.63;6.53;;;16.10;99.90;;;;;;5012469;28;20216;-73
2023/09/16 01:58:52;;;;;;;7.80;6.67;;;16.00;99.90;;;;;;5012365;28;20176;-74
2023/09/16 02:01:17;;;;;;;8.47;7.23;;;16.00;99.90;;;;;;5012430;28;20226;-73
2023/09/16 02:03:43;;;;;;;9.00;7.20;;;15.90;99.90;;;;;;5012467;28;20184;-73
2023/09/16 02:06:09;;;;;;;8.30;7.50;;;15.90;99.90;;;;;;5012399;28;20227;-73
2023/09/16 02:08:34;;;;;;;8.03;7.33;;;15.90;99.90;;;;;;5012166;28;20188;-73
2023/09/16 02:11:01;;;;;;;8.90;8.03;;;15.90;99.90;;;;;;5012333;28;20664;-74
2023/09/16 02:13:26;;;;;;;11.97;6.90;;;15.90;99.90;;;;;;5012186;28;20279;-73
2023/09/16 02:15:52;;;;;;;8.23;7.37;;;15.80;99.90;;;;;;5020351;28;20286;-74
2023/09/16 02:18:18;;;;;;;10.90;7.27;;;15.80;99.90;;;;;;5011757;28;20191;-73
2023/09/16 02:20:43;;;;;;;8.77;8.00;;;15.80;99.90;;;;;;5018828;28;20179;-73
2023/09/16 02:23:09;;;;;;;8.77;7.97;;;15.80;99.90;;;;;;5013021;28;20192;-73
2023/09/16 02:25:35;;;;;;;10.20;8.00;;;15.70;99.90;;;;;;5012392;28;20187;-73
2023/09/16 02:28:01;;;;;;;8.13;7.23;;;15.70;99.90;;;;;;5012474;28;20559;-74
2023/09/16 02:30:27;;;;;;;8.70;7.57;;;15.80;99.90;;;;;;5011914;28;20180;-73
2023/09/16 02:32:52;;;;;;;8.13;7.40;;;15.80;99.90;;;;;;5012044;28;20207;-74
2023/09/16 02:35:18;;;;;;;8.83;7.97;;;15.80;99.90;;;;;;5012111;28;20282;-73
2023/09/16 02:37:43;;;;;;;10.73;8.57;;;15.80;99.90;;;;;;5012127;28;20180;-74
2023/09/16 02:40:09;;;;;;;9.17;8.27;;;15.90;99.90;;;;;;5019962;28;20184;-73
2023/09/16 02:42:35;;;;;;;9.03;8.17;;;15.90;99.90;;;;;;5012090;28;20192;-73
2023/09/16 02:45:01;;;;;;;9.43;8.53;;;15.90;99.90;;;;;;5011335;28;20195;-74
2023/09/16 02:47:26;;;;;;;9.90;8.50;;;16.00;99.90;;;;;;5011769;28;20184;-73
2023/09/16 02:49:52;;;;;;;9.63;8.50;;;16.00;99.90;;;;;;5011788;28;20191;-73
2023/09/16 02:52:20;;;;;;;9.00;8.10;;;16.00;99.90;;;;;;5011544;28;20799;-73
2023/09/16 02:54:45;;;;;;;9.43;8.53;;;16.10;99.90;;;;;;5011765;28;20306;-73
2023/09/16 02:57:11;;;;;;;8.57;7.77;;;16.10;99.90;;;;;;5011690;28;20734;-73
2023/09/16 02:59:37;;;;;;;8.67;7.23;;;16.10;99.90;;;;;;5011479;28;20184;-73
2023/09/16 03:02:03;;;;;;;8.07;7.27;;;16.20;99.90;;;;;;5011584;28;20212;-73
2023/09/16 03:04:28;;;;;;;7.90;7.20;;;16.30;99.90;;;;;;5011610;28;20215;-73
2023/09/16 03:06:54;;;;;;;7.40;6.67;;;16.30;99.90;;;;;;5011724;28;20184;-73
2023/09/16 03:09:19;;;;;;;8.03;7.13;;;16.50;99.90;;;;;;5003294;28;20266;-73
2023/09/16 03:11:45;;;;;;;7.87;7.07;;;16.50;99.90;;;;;;5011546;28;20626;-73
2023/09/16 03:14:11;;;;;;;7.77;6.97;;;16.60;99.90;;;;;;5011153;28;20360;-73
2023/09/16 03:16:37;;;;;;;7.10;6.50;;;16.70;99.90;;;;;;5010337;28;20636;-73
2023/09/16 03:19:03;;;;;;;7.97;7.17;;;16.70;99.90;;;;;;5011366;28;20238;-73
2023/09/16 03:21:29;;;;;;;7.57;6.80;;;16.70;99.90;;;;;;5010340;28;20659;-73
2023/09/16 03:23:55;;;;;;;8.37;6.50;;;16.80;99.90;;;;;;5011494;28;20177;-74
2023/09/16 03:26:21;;;;;;;7.23;6.53;;;16.80;99.90;;;;;;5011463;28;20188;-73
2023/09/16 03:28:46;;;;;;;6.40;5.80;;;16.80;99.90;;;;;;5010903;28;20195;-73
2023/09/16 03:31:13;;;;;;;7.60;6.77;;;16.70;99.90;;;;;;5015254;28;20204;-73
2023/09/16 03:33:39;;;;;;;6.33;5.73;;;16.60;99.90;;;;;;5015282;28;20207;-73
2023/09/16 03:36:05;;;;;;;6.63;6.03;;;16.60;99.90;;;;;;5015387;28;20295;-73
2023/09/16 03:38:33;;;;;;;6.63;6.03;;;16.40;99.90;;;;;;5015070;28;20661;-73
2023/09/16 03:40:59;;;;;;;6.83;6.13;;;16.30;99.90;;;;;;5015000;28;20227;-73
2023/09/16 03:43:25;;;;;;;6.67;6.07;;;16.30;99.90;;;;;;5015070;28;20187;-73
2023/09/16 03:45:51;;;;;;;8.77;6.67;;;16.20;99.90;;;;;;5014936;28;20226;-73
2023/09/16 03:48:16;;;;;;;6.33;5.73;;;16.20;99.90;;;;;;5014663;28;20192;-73
2023/09/16 03:50:42;;;;;;;6.93;6.33;;;16.10;99.90;;;;;;5015273;28;20177;-73
2023/09/16 03:53:09;;;;;;;6.40;5.80;;;16.10;99.90;;;;;;5014959;28;20730;-73
2023/09/16 03:55:36;;;;;;;6.30;5.80;;;16.00;99.90;;;;;;5014860;28;21040;-73
2023/09/16 03:58:02;;;;;;;6.63;6.03;;;16.00;99.90;;;;;;5014979;28;20250;-73
2023/09/16 04:00:28;;;;;;;6.57;5.97;;;16.00;99.90;;;;;;5014694;28;20570;-73
2023/09/16 04:02:54;;;;;;;5.53;5.13;;;15.90;99.90;;;;;;5014581;28;20200;-73
2023/09/16 04:05:20;;;;;;;6.70;6.00;;;15.90;99.90;;;;;;5014781;28;20180;-73
2023/09/16 04:07:47;;;;;;;5.77;5.23;;;15.80;99.90;;;;;;5014872;28;20184;-72
2023/09/16 04:10:12;;;;;;;6.40;5.80;;;15.80;99.90;;;;;;5014293;28;20219;-72
2023/09/16 04:12:38;;;;;;;7.20;6.50;;;15.80;99.90;;;;;;5014597;28;20203;-72
2023/09/16 04:15:04;;;;;;;5.77;5.27;;;15.80;99.90;;;;;;5014768;28;20204;-73
2023/09/16 04:17:30;;;;;;;5.97;5.47;;;15.80;99.90;;;;;;5014535;28;20180;-72
2023/09/16 04:19:56;;;;;;;8.50;5.77;;;15.70;99.90;;;;;;5013030;28;20181;-72
2023/09/16 04:22:22;;;;;;;5.87;5.27;;;15.70;99.90;;;;;;5014438;28;20655;-73
2023/09/16 04:24:47;;;;;;;6.13;5.53;;;15.70;99.90;;;;;;5014332;28;20192;-73
2023/09/16 04:27:13;;;;;;;6.90;6.20;;;15.70;99.90;;;;;;5014401;28;20191;-74
2023/09/16 04:29:38;;;;;;;7.57;6.37;;;15.60;99.90;;;;;;5014147;28;20266;-73
2023/09/16 04:32:04;;;;;;;6.90;5.60;;;15.60;99.90;;;;;;5014369;28;20270;-73
2023/09/16 04:34:32;;;;;;;6.07;5.47;;;15.60;99.90;;;;;;5013968;28;20279;-73
2023/09/16 04:36:59;;;;;;;6.50;5.90;;;15.60;99.90;;;;;;5014423;28;20204;-73
2023/09/16 04:39:27;;;;;;;6.57;5.97;;;15.60;99.90;;;;;;5013993;28;20263;-72
2023/09/16 04:41:53;;;;;;;6.47;5.87;;;15.60;99.90;;;;;;5014027;28;20620;-72
2023/09/16 04:44:23;;;;;;;7.53;6.10;;;15.60;99.90;;;;;;5013789;28;20188;-73
2023/09/16 04:46:53;;;;;;;6.27;5.77;;;15.60;99.90;;;;;;5014222;28;20675;-72
2023/09/16 04:49:19;;;;;;;6.40;5.80;;;15.50;99.90;;;;;;5021930;28;20632;-73
2023/09/16 04:51:45;;;;;;;6.43;5.83;;;15.50;99.90;;;;;;5013848;28;20725;-73
2023/09/16 04:54:11;;;;;;;6.17;5.60;;;15.50;99.90;;;;;;5013751;28;20199;-72
2023/09/16 04:56:37;;;;;;;6.30;5.80;;;15.50;99.90;;;;;;5013695;28;20234;-73
2023/09/16 04:59:03;;;;;;;6.87;6.17;;;15.50;99.90;;;;;;5012381;28;20188;-72
2023/09/16 05:01:31;;;;;;;8.33;6.63;;;15.40;99.90;;;;;;5013461;28;20230;-73
2023/09/16 05:03:58;;;;;;;6.07;5.50;;;15.40;99.90;;;;;;5020318;28;20179;-72
2023/09/16 05:06:23;;;;;;;6.77;6.17;;;15.40;99.90;;;;;;5017054;28;20333;-72
2023/09/16 05:08:49;;;;;;;6.80;6.10;;;15.40;99.90;;;;;;5018425;28;20384;-73
2023/09/16 05:11:16;;;;;;;6.33;5.73;;;15.40;99.90;;;;;;5013409;28;20343;-73
2023/09/16 05:13:41;;;;;;;7.13;6.47;;;15.40;99.90;;;;;;5013492;28;20191;-73
2023/09/16 05:16:10;;;;;;;6.53;5.93;;;15.40;99.90;;;;;;5013221;28;20575;-73
2023/09/16 05:18:36;;;;;;;6.97;6.37;;;15.40;99.90;;;;;;5021729;28;20659;-72
2023/09/16 05:21:02;;;;;;;7.13;6.47;;;15.40;99.90;;;;;;5013630;28;20192;-73
2023/09/16 05:23:30;;;;;;;8.03;6.00;;;15.40;99.90;;;;;;5013410;28;20184;-72
2023/09/16 05:25:56;;;;;;;16.50;8.33;;;15.40;99.90;;;;;;5013295;28;20188;-72
2023/09/16 05:28:21;;;;;;;8.93;6.77;;;15.30;99.90;;;;;;5012688;28;20267;-72
2023/09/16 05:30:47;;;;;;;7.13;6.50;;;15.30;99.90;;;;;;5013008;28;20177;-72
2023/09/16 05:33:13;;;;;;;7.03;6.33;;;15.40;99.90;;;;;;5021067;28;20566;-72
2023/09/16 05:35:40;;;;;;;7.43;6.10;;;15.50;99.90;;;;;;5012853;28;20663;-73
2023/09/16 05:38:06;;;;;;;7.03;6.07;;;15.50;99.90;;;;;;5011635;28;20187;-72
2023/09/16 05:40:31;;;;;;;6.93;6.30;;;15.50;99.90;;;;;;5012802;28;20234;-72
2023/09/16 05:42:57;;;;;;;9.10;6.80;;;15.50;99.90;;;;;;5012574;28;20196;-72
2023/09/16 05:45:23;;;;;;;7.03;6.43;;;15.60;99.90;;;;;;5012672;28;20573;-73
2023/09/16 05:47:49;;;;;;;7.30;6.60;;;15.60;99.90;;;;;;5012740;28;20191;-72
2023/09/16 05:50:16;;;;;;;12.53;7.20;;;15.70;99.90;;;;;;5012450;28;20191;-73
2023/09/16 05:52:42;;;;;;;6.80;6.10;;;15.70;99.90;;;;;;5012215;28;20200;-72
2023/09/16 05:55:07;;;;;;;7.20;6.53;;;15.80;99.90;;;;;;5011354;28;20699;-72
2023/09/16 05:57:33;;;;;;;6.47;5.87;;;15.90;99.90;;;;;;5010994;28;20184;-72
2023/09/16 05:59:59;;;;;;;6.80;6.20;;;15.90;99.90;;;;;;5005252;28;20652;-72
2023/09/16 06:02:25;;;;;;;6.60;6.00;;;16.00;99.90;;;;;;5012102;28;20200;-72
2023/09/16 06:04:50;;;;;;;6.83;6.07;;;16.00;99.90;;;;;;5012473;28;20180;-72
2023/09/16 06:07:17;;;;;;;7.23;6.10;;;16.10;99.90;;;;;;5012205;28;20262;-72
2023/09/16 06:09:42;;;;;;;6.30;5.80;;;16.10;99.90;;;;;;5012337;28;20546;-72
2023/09/16 06:12:08;;;;;;;6.43;5.73;;;16.20;99.90;;;;;;5011740;28;20221;-72
2023/09/16 06:14:34;;;;;;;7.37;5.83;;;16.30;99.90;;;;;;5012092;28;20655;-72
2023/09/16 06:17:00;;;;;;;7.13;5.90;;;16.30;99.90;;;;;;5010921;28;20270;-72
2023/09/16 06:19:27;;;;;;;5.90;5.13;;;16.40;99.90;;;;;;5012045;28;20177;-72
2023/09/16 06:21:53;;;;;;;6.20;5.60;;;16.40;99.90;;;;;;5012057;28;20734;-72
2023/09/16 06:24:18;;;;;;;6.87;5.60;;;16.60;99.90;;;;;;5011418;28;20648;-72
2023/09/16 06:26:44;;;;;;;7.23;5.53;;;16.60;99.90;;;;;;5010333;28;20180;-76
2023/09/16 06:29:10;;;;;;;6.30;5.70;;;16.70;99.90;;;;;;5011556;28;20689;-72
2023/09/16 06:31:35;;;;;;;6.97;5.53;;;16.80;99.90;;;;;;5011743;28;20663;-72
2023/09/16 06:34:02;;;;;;;9.67;5.83;;;16.90;99.90;;;;;;5011628;28;20191;-72
2023/09/16 06:36:28;;;;;;;5.97;5.47;;;17.10;99.90;;;;;;5011527;28;20207;-72
2023/09/16 06:38:54;;;;;;;6.67;4.77;;;17.20;99.90;;;;;;5011645;28;20184;-72
2023/09/16 06:41:20;;;;;;;5.30;4.70;;;17.50;99.90;;;;;;5011554;28;20294;-72
2023/09/16 06:43:45;;;;;;;5.17;4.70;;;17.90;99.90;;;;;;5011634;28;20231;-72
2023/09/16 06:46:11;;;;;;;4.87;4.47;;;18.40;99.90;;;;;;5012274;28;20239;-73
2023/09/16 06:48:37;;;;;;;4.57;3.97;;;18.90;99.90;;;;;;5017129;28;20558;-72
2023/09/16 06:51:02;;;;;;;5.40;4.43;;;19.40;99.90;;;;;;5011643;28;20227;-72
2023/09/16 06:53:28;;;;;;;4.35;3.95;;;19.80;99.90;;;;;;5011154;28;20200;-73
2023/09/16 06:55:54;;;;;;;4.65;4.25;;;20.20;99.90;;;;;;5011304;28;20208;-72
2023/09/16 06:58:21;;;;;;;12.10;5.28;;;20.60;99.90;;;;;;5012919;28;20237;-73
2023/09/16 07:00:48;;;;;;;5.30;3.97;;;20.90;99.90;;;;;;5016138;28;20180;-73
2023/09/16 07:03:14;;;;;;;6.70;4.10;;;21.30;99.90;;;;;;5009634;28;20555;-73
2023/09/16 07:05:48;;;;;;;6.10;4.35;;;21.60;1.00;;;;;;5010969;28;20176;-73
2023/09/16 07:08:15;;;;;;;5.90;3.60;;;22.20;1.00;;;;;;5011515;28;20261;-72
2023/09/16 07:10:41;;;;;;;4.38;4.00;;;22.50;99.90;;;;;;5010539;28;20183;-73
2023/09/16 07:13:07;;;;;;;6.57;3.53;;;22.90;1.00;;;;;;5011229;28;20180;-73
2023/09/16 07:15:32;;;;;;;13.38;4.68;;;23.20;99.90;;;;;;5019251;28;20199;-73
2023/09/16 07:17:58;;;;;;;7.32;4.25;;;23.40;1.00;;;;;;5011324;28;20176;-72
2023/09/16 07:20:24;;;;;;;4.20;3.80;;;23.70;1.00;;;;;;5011079;28;20172;-72
2023/09/16 07:22:51;;;;;;;5.70;3.83;;;24.00;1.00;;;;;;5011845;28;20246;-72
2023/09/16 07:25:17;;;;;;;5.20;3.25;;;24.20;1.00;;;;;;5011608;28;20206;-73
2023/09/16 07:27:42;;;;;;;3.78;3.47;;;24.30;1.00;;;;;;5010003;28;20566;-73
2023/09/16 07:30:08;;;;;;;4.97;4.07;;;24.40;1.00;;;;;;5011192;28;20172;-72
2023/09/16 07:32:34;;;;;;;4.95;4.43;;;24.60;1.00;;;;;;5010936;28;20208;-72
2023/09/16 07:35:00;;;;;;;4.60;4.30;;;24.60;1.00;;;;;;5011380;28;20218;-72
2023/09/16 07:37:25;;;;;;;4.85;4.35;;;24.50;99.90;;;;;;5011587;28;20226;-75
2023/09/16 07:39:51;;;;;;;5.40;4.47;;;24.50;28.50;;;;;;5009518;28;20222;-72
2023/09/16 07:42:17;;;;;;;3.70;3.40;;;24.60;99.90;;;;;;5010960;28;20235;-73
2023/09/16 07:44:43;;;;;;;6.18;4.60;;;24.80;99.90;;;;;;5011386;28;20254;-72
2023/09/16 07:47:08;;;;;;;5.85;5.30;;;25.00;99.90;;;;;;5011416;28;20322;-72
2023/09/16 07:49:35;;;;;;;5.60;5.20;;;25.20;99.90;;;;;;5011183;28;20569;-72
2023/09/16 07:52:00;;;;;;;5.10;4.47;;;25.20;99.90;;;;;;5011336;28;20199;-70
2023/09/16 07:54:26;;;;;;;4.50;4.07;;;25.20;1.00;;;;;;5011037;28;20196;-70
2023/09/16 07:56:51;;;;;;;3.95;3.65;;;25.20;99.90;;;;;;5011375;28;20298;-72
2023/09/16 07:59:20;;;;;;;4.47;3.63;;;25.20;99.90;;;;;;5010943;28;20271;-71
2023/09/16 08:01:46;;;;;;;5.00;4.10;;;25.20;99.90;;;;;;5010932;28;20632;-71
2023/09/16 08:04:11;;;;;;;5.05;3.88;;;25.30;99.90;;;;;;5011245;28;20246;-72
2023/09/16 08:06:37;;;;;;;4.20;3.80;;;25.40;99.90;;;;;;5010570;28;20617;-73
2023/09/16 08:09:03;;;;;;;4.00;3.70;;;25.80;99.90;;;;;;5009947;28;20188;-73
2023/09/16 08:11:28;;;;;;;3.88;3.58;;;26.20;99.90;;;;;;5010731;28;20870;-73
2023/09/16 08:13:54;;;;;;;4.38;3.97;;;26.60;1.00;;;;;;5010623;28;20266;-73
2023/09/16 08:16:19;;;;;;;4.63;4.22;;;27.00;99.90;;;;;;5013327;28;20200;-73
2023/09/16 08:18:45;;;;;;;4.82;4.43;;;27.20;99.90;;;;;;5014246;28;20180;-72
2023/09/16 08:21:11;;;;;;;3.95;3.65;;;27.40;1.00;;;;;;5014513;28;20200;-73
2023/09/16 08:23:37;;;;;;;6.68;3.83;;;27.50;1.00;;;;;;5014255;28;20200;-73
2023/09/16 08:26:02;;;;;;;9.07;8.48;;;27.70;1.00;;;;;;5021200;28;20183;-72
2023/09/16 08:28:28;;;;;;;7.60;7.18;;;27.80;99.90;;;;;;5013508;28;20188;-74
2023/09/16 08:30:54;;;;;;;6.95;6.35;;;27.70;99.90;;;;;;5014006;28;20185;-74
2023/09/16 08:33:20;;;;;;;6.88;6.32;;;27.50;99.90;;;;;;5013910;28;20196;-73
2023/09/16 08:35:45;;;;;;;7.65;6.95;;;27.40;1.00;;;;;;5013894;28;20235;-72
2023/09/16 08:38:11;;;;;;;7.20;6.63;;;27.40;99.90;;;;;;5012694;28;20229;-73
2023/09/16 08:40:36;;;;;;;6.40;6.00;;;27.50;99.90;;;;;;5013526;28;20176;-74
2023/09/16 08:43:37;;;;;;;9.18;5.22;;;27.80;1.00;;;;;;5014011;28;20192;-73
2023/09/16 08:46:06;;;;;;;4.88;4.40;;;28.10;1.00;;;;;;5012073;28;20203;-73
2023/09/16 08:48:34;;;;;;;4.85;4.20;;;28.60;1.00;;;;;;5016764;28;20184;-73
2023/09/16 08:51:02;;;;;;;6.28;4.55;;;29.00;99.90;;;;;;5013597;28;20204;-73
2023/09/16 08:53:30;;;;;;;7.60;4.72;;;29.20;1.00;;;;;;5012231;28;20241;-73
2023/09/16 08:55:57;;;;;;;5.93;5.40;;;29.30;99.90;;;;;;5013742;28;20207;-73
2023/09/16 08:58:24;;;;;;;5.05;4.30;;;29.40;1.00;;;;;;5013174;28;20247;-73
2023/09/16 09:00:49;;;;;;;4.38;3.97;;;29.10;1.00;;;;;;5020472;28;20548;-74
2023/09/16 09:03:15;;;;;;;5.55;4.93;;;29.20;99.90;;;;;;5013670;28;20180;-74
2023/09/16 09:05:43;;;;;;;4.30;4.00;;;29.10;99.90;;;;;;5013503;28;20263;-74
2023/09/16 09:08:11;;;;;;;5.78;5.15;;;28.80;1.00;;;;;;5013581;28;20184;-73
2023/09/16 09:10:38;;;;;;;6.80;6.10;;;28.60;1.00;;;;;;5013240;28;20567;-72
2023/09/16 09:13:11;;;;;;;4.72;4.32;;;28.60;99.90;;;;;;5012782;28;20184;-74
2023/09/16 09:15:40;;;;;;;5.28;4.78;;;28.70;8.70;;;;;;5013119;28;20294;-73
2023/09/16 09:18:07;;;;;;;5.10;4.55;;;28.70;1.00;;;;;;5019110;28;20172;-73
2023/09/16 09:20:34;;;;;;;4.40;3.95;;;28.90;99.90;;;;;;5012598;28;20176;-73
2023/09/16 09:22:59;;;;;;;5.20;4.50;;;29.20;99.90;;;;;;5012067;28;20250;-74
2023/09/16 09:25:29;;;;;;;4.68;4.22;;;29.30;99.90;;;;;;5012948;28;20180;-71
2023/09/16 09:27:57;;;;;;;4.47;4.03;;;29.50;1.00;;;;;;5011717;28;20184;-73
2023/09/16 09:30:27;;;;;;;4.60;4.20;;;29.50;1.00;;;;;;5012628;28;20175;-74
2023/09/16 09:32:56;;;;;;;4.25;3.83;;;29.50;99.90;;;;;;5013206;28;20223;-73
2023/09/16 09:35:23;;;;;;;4.20;3.80;;;29.80;99.90;;;;;;5012935;28;20246;-73
2023/09/16 09:37:49;;;;;;;3.75;3.33;;;30.00;99.90;;;;;;5012899;28;20179;-74
2023/09/16 09:40:15;;;;;;;6.07;3.50;;;30.40;99.90;;;;;;5012467;28;20329;-73
2023/09/16 09:42:46;;;;;;;3.85;3.40;;;30.70;1.00;;;;;;5006345;28;20548;-73
2023/09/16 09:45:13;;;;;;;4.43;3.80;;;31.00;1.00;;;;;;5012474;28;20180;-73
2023/09/16 09:47:40;;;;;;;7.38;4.07;;;31.10;99.90;;;;;;5012653;28;20181;-74
2023/09/16 09:50:07;;;;;;;6.95;3.65;;;31.10;99.90;;;;;;5012572;28;20180;-73
2023/09/16 09:52:34;;;;;;;4.88;4.22;;;31.20;99.90;;;;;;5012313;28;20214;-73
2023/09/16 09:55:01;;;;;;;5.05;4.05;;;31.00;1.00;;;;;;5011257;28;20208;-74
2023/09/16 09:57:29;;;;;;;3.83;3.45;;;30.90;1.00;;;;;;5012608;28;20222;-73
2023/09/16 09:59:57;;;;;;;5.45;4.40;;;30.90;1.00;;;;;;5012617;28;20176;-73
2023/09/16 10:02:25;;;;;;;5.00;3.50;;;30.90;23.70;;;;;;5012326;28;20671;-74
2023/09/16 10:05:02;;;;;;;4.85;4.43;;;31.00;99.90;;;;;;5012829;28;20172;-73
2023/09/16 10:07:32;;;;;;;4.50;4.10;;;30.90;99.90;;;;;;5011849;28;20199;-73
2023/09/16 10:09:58;;;;;;;6.13;4.72;;;31.00;99.90;;;;;;5012099;28;20651;-73
2023/09/16 10:12:24;;;;;;;6.68;4.28;;;31.20;1.00;;;;;;5012140;28;20235;-73
2023/09/16 10:14:51;;;;;;;5.70;4.10;;;31.30;99.90;;;;;;5012266;28;20261;-73
2023/09/16 10:17:17;;;;;;;5.00;3.92;;;31.10;1.00;;;;;;5012207;28;20235;-73
2023/09/16 10:19:43;;;;;;;5.32;4.93;;;30.90;99.90;;;;;;5011991;28;20169;-73
2023/09/16 10:22:11;;;;;;;7.45;5.35;;;30.80;1.00;;;;;;5012069;28;20778;-73
2023/09/16 10:24:38;;;;;;;6.03;5.53;;;30.50;74.20;;;;;;5012433;28;20207;-74
2023/09/16 10:27:12;;;;;;;6.80;4.93;;;30.00;1.00;;;;;;5012545;28;20181;-74
2023/09/16 10:29:39;;;;;;;7.80;7.22;;;29.70;99.90;;;;;;5011902;28;20179;-74
2023/09/16 10:32:06;;;;;;;8.57;7.85;;;29.40;99.90;;;;;;5011573;28;20208;-74
2023/09/16 10:34:32;;;;;;;8.68;8.15;;;29.20;99.90;;;;;;5010543;28;20648;-75
2023/09/16 10:36:58;;;;;;;8.45;7.72;;;29.30;99.90;;;;;;5011779;28;20184;-74
2023/09/16 10:39:26;;;;;;;12.02;11.23;;;29.20;52.20;;;;;;5011363;28;20176;-74
2023/09/16 10:41:53;;;;;;;6.60;6.20;;;29.10;39.30;;;;;;5011752;28;20211;-73
2023/09/16 10:44:20;;;;;;;5.88;5.47;;;29.00;99.90;;;;;;5011740;28;20187;-73
2023/09/16 10:46:47;;;;;;;7.45;6.53;;;28.90;99.90;;;;;;5011711;28;20235;-74
2023/09/16 10:49:12;;;;;;;10.93;5.93;;;29.00;1.00;;;;;;5011429;28;20235;-73
2023/09/16 10:51:48;;;;;;;8.73;7.93;;;29.10;1.00;;;;;;5011313;28;20317;-73
2023/09/16 10:54:24;;;;;;;8.38;7.68;;;29.10;99.90;;;;;;5011909;28;20211;-73
2023/09/16 10:56:50;;;;;;;7.53;6.95;;;29.00;1.00;;;;;;5004357;28;20754;-73
2023/09/16 10:59:18;;;;;;;5.93;5.53;;;28.80;1.00;;;;;;5010292;28;20184;-73
2023/09/16 11:01:55;;;;;;;6.60;5.13;;;28.70;77.50;;;;;;5011546;28;20274;-73
2023/09/16 11:04:21;;;;;;;5.68;5.10;;;28.70;99.90;;;;;;5012537;28;20187;-72
2023/09/16 11:06:52;;;;;;;5.78;5.28;;;28.80;1.00;;;;;;5012695;28;20512;-73
2023/09/16 11:09:22;;;;;;;11.00;10.18;;;29.00;1.00;;;;;;5012756;28;20183;-73
2023/09/16 11:11:51;;;;;;;7.75;5.18;;;29.00;1.00;;;;;;5012180;28;20195;-73
2023/09/16 11:14:21;;;;;;;6.90;6.30;;;28.80;96.60;;;;;;5012335;28;20176;-73
2023/09/16 11:16:54;;;;;;;8.65;7.95;;;28.60;99.90;;;;;;5003625;28;20261;-73
2023/09/16 11:19:24;;;;;;;7.40;5.70;;;28.60;1.00;;;;;;5009697;28;20234;-73
2023/09/16 11:21:51;;;;;;;7.57;6.10;;;28.80;1.00;;;;;;5010782;28;20196;-73
2023/09/16 11:24:17;;;;;;;5.22;4.82;;;28.90;99.90;;;;;;5011571;28;20180;-73
2023/09/16 11:26:47;;;;;;;7.60;7.10;;;29.00;1.00;;;;;;5011102;28;20187;-73
2023/09/16 11:29:17;;;;;;;6.25;5.85;;;29.00;99.90;;;;;;5011062;28;20176;-74
2023/09/16 11:31:43;;;;;;;6.63;6.10;;;29.20;99.90;;;;;;5011062;28;20207;-73
2023/09/16 11:34:11;;;;;;;6.00;5.50;;;29.30;99.90;;;;;;5011112;28;20194;-73
2023/09/16 11:36:42;;;;;;;6.05;5.25;;;29.40;1.00;;;;;;5010956;28;20286;-74
2023/09/16 11:39:08;;;;;;;7.03;6.32;;;29.50;1.00;;;;;;5010976;28;20203;-73
2023/09/16 11:41:34;;;;;;;7.32;6.82;;;29.60;1.00;;;;;;5010987;28;20188;-74
2023/09/16 11:44:00;;;;;;;12.75;11.73;;;29.70;90.70;;;;;;5010666;28;20395;-72
2023/09/16 11:46:26;;;;;;;10.50;9.85;;;29.70;1.00;;;;;;5009936;28;20270;-73
2023/09/16 11:49:05;;;;;;;16.60;15.50;;;29.90;99.90;;;;;;5010885;28;20674;-73
2023/09/16 11:51:32;;;;;;;9.88;9.27;;;30.00;1.00;;;;;;5021869;28;20789;-72
2023/09/16 11:53:58;;;;;;;8.15;7.60;;;30.10;1.00;;;;;;5014793;28;20881;-74
2023/09/16 11:56:29;;;;;;;15.07;14.07;;;30.10;99.90;;;;;;5014844;28;20216;-73
2023/09/16 11:58:58;;;;;;;15.88;14.88;;;30.30;1.00;;;;;;5014692;28;20698;-73
2023/09/16 12:01:28;;;;;;;16.75;15.85;;;30.30;1.00;;;;;;5014505;28;20303;-74
2023/09/16 12:03:55;;;;;;;9.77;9.10;;;30.50;1.00;;;;;;5014698;28;20188;-74
2023/09/16 12:06:22;;;;;;;7.15;6.57;;;30.80;99.90;;;;;;5014913;28;20258;-73
2023/09/16 12:08:48;;;;;;;5.50;5.10;;;31.10;1.00;;;;;;5014260;28;20231;-73
2023/09/16 12:11:15;;;;;;;5.07;4.68;;;31.40;1.00;;;;;;5014785;28;20579;-73
2023/09/16 12:13:41;;;;;;;10.48;6.50;;;31.50;99.90;;;;;;5014474;28;20249;-74
2023/09/16 12:16:06;;;;;;;5.60;5.10;;;31.70;1.00;;;;;;5014177;28;20220;-72
2023/09/16 12:18:32;;;;;;;4.53;4.15;;;31.90;1.00;;;;;;5014234;28;20549;-73
2023/09/16 12:20:58;;;;;;;4.60;4.20;;;32.00;99.90;;;;;;5012686;28;20238;-72
2023/09/16 12:23:28;;;;;;;4.90;4.50;;;32.10;1.00;;;;;;5014569;28;20183;-74
2023/09/16 12:25:54;;;;;;;5.82;4.13;;;32.10;99.90;;;;;;5006717;28;20184;-74
2023/09/16 12:28:24;;;;;;;4.20;3.80;;;32.20;1.00;;;;;;5014391;28;20176;-74
2023/09/16 12:30:52;;;;;;;4.35;3.80;;;32.10;99.90;;;;;;5006061;28;20195;-74
2023/09/16 12:33:48;;;;;;;5.55;4.20;;;32.10;1.00;;;;;;5014307;28;20543;-73
2023/09/16 12:36:15;;;;;;;4.50;4.10;;;32.00;1.00;;;;;;5012235;28;20286;-75
2023/09/16 12:38:42;;;;;;;4.30;4.00;;;32.00;1.00;;;;;;5013847;28;20180;-73
2023/09/16 12:41:08;;;;;;;4.50;4.07;;;32.00;1.00;;;;;;5014197;28;20286;-73
2023/09/16 12:43:34;;;;;;;7.22;4.00;;;31.90;1.00;;;;;;5013529;28;20207;-74
2023/09/16 12:46:03;;;;;;;5.75;4.00;;;31.80;1.00;;;;;;5014015;28;20251;-73